sensor_id;sensor_type;location;lat;lon;timestamp;P1;durP1;ratioP1;P2;durP2;ratioP2
37085;SDS011;23001;45.952;12.676;2022-11-20T00:00:36;5.13;;;4.38;;
37085;SDS011;23001;45.952;12.676;2022-11-20T00:03:02;4.97;;;4.10;;
37085;SDS011;23001;45.952;12.676;2022-11-20T00:05:27;6.25;;;4.90;;
37085;SDS011;23001;45.952;12.676;2022-11-20T00:07:53;6.05;;;4.72;;
37085;SDS011;23001;45.952;12.676;2022-11-20T00:10:19;6.53;;;4.95;;
37085;SDS011;23001;45.952;12.676;2022-11-20T00:12:44;6.78;;;5.20;;
37085;SDS011;23001;45.952;12.676;2022-11-20T00:15:10;6.65;;;4.65;;
37085;SDS011;23001;45.952;12.676;2022-11-20T00:17:36;5.75;;;5.10;;
37085;SDS011;23001;45.952;12.676;2022-11-20T00:20:02;6.78;;;5.35;;
37085;SDS011;23001;45.952;12.676;2022-11-20T00:22:27;6.68;;;5.10;;
37085;SDS011;23001;45.952;12.676;2022-11-20T00:24:53;6.10;;;5.43;;
37085;SDS011;23001;45.952;12.676;2022-11-20T00:27:19;8.07;;;6.45;;
37085;SDS011;23001;45.952;12.676;2022-11-20T00:29:44;6.63;;;5.32;;
37085;SDS011;23001;45.952;12.676;2022-11-20T00:32:10;8.20;;;5.97;;
37085;SDS011;23001;45.952;12.676;2022-11-20T00:34:36;7.32;;;6.13;;
37085;SDS011;23001;45.952;12.676;2022-11-20T00:37:01;7.63;;;6.40;;
37085;SDS011;23001;45.952;12.676;2022-11-20T00:39:27;7.15;;;5.80;;
37085;SDS011;23001;45.952;12.676;2022-11-20T00:41:53;6.75;;;5.57;;
37085;SDS011;23001;45.952;12.676;2022-11-20T00:44:18;8.23;;;5.55;;
37085;SDS011;23001;45.952;12.676;2022-11-20T00:46:44;6.38;;;5.53;;
37085;SDS011;23001;45.952;12.676;2022-11-20T00:49:10;8.95;;;5.60;;
37085;SDS011;23001;45.952;12.676;2022-11-20T00:51:35;8.32;;;6.28;;
37085;SDS011;23001;45.952;12.676;2022-11-20T00:54:01;8.20;;;6.97;;
37085;SDS011;23001;45.952;12.676;2022-11-20T00:56:27;8.35;;;7.22;;
37085;SDS011;23001;45.952;12.676;2022-11-20T00:58:53;8.82;;;7.18;;
37085;SDS011;23001;45.952;12.676;2022-11-20T01:01:20;13.52;;;8.40;;
37085;SDS011;23001;45.952;12.676;2022-11-20T01:03:49;9.45;;;7.38;;
37085;SDS011;23001;45.952;12.676;2022-11-20T01:06:17;7.47;;;6.15;;
37085;SDS011;23001;45.952;12.676;2022-11-20T01:08:45;7.97;;;5.80;;
37085;SDS011;23001;45.952;12.676;2022-11-20T01:11:12;12.95;;;6.95;;
37085;SDS011;23001;45.952;12.676;2022-11-20T01:13:39;6.82;;;5.95;;
37085;SDS011;23001;45.952;12.676;2022-11-20T01:16:10;6.47;;;5.70;;
37085;SDS011;23001;45.952;12.676;2022-11-20T01:18:38;9.20;;;6.10;;
37085;SDS011;23001;45.952;12.676;2022-11-20T01:21:07;7.30;;;5.35;;
37085;SDS011;23001;45.952;12.676;2022-11-20T01:23:38;6.75;;;5.45;;
37085;SDS011;23001;45.952;12.676;2022-11-20T01:26:07;6.80;;;4.80;;
37085;SDS011;23001;45.952;12.676;2022-11-20T01:28:38;6.53;;;4.80;;
37085;SDS011;23001;45.952;12.676;2022-11-20T01:31:37;7.45;;;4.88;;
37085;SDS011;23001;45.952;12.676;2022-11-20T01:33:58;6.88;;;4.65;;
37085;SDS011;23001;45.952;12.676;2022-11-20T01:36:31;6.07;;;5.40;;
37085;SDS011;23001;45.952;12.676;2022-11-20T01:39:02;7.13;;;5.50;;
37085;SDS011;23001;45.952;12.676;2022-11-20T01:41:31;6.78;;;5.50;;
37085;SDS011;23001;45.952;12.676;2022-11-20T01:44:17;5.97;;;5.03;;
37085;SDS011;23001;45.952;12.676;2022-11-20T01:49:23;5.28;;;4.75;;
37085;SDS011;23001;45.952;12.676;2022-11-20T01:52:06;6.28;;;4.60;;
37085;SDS011;23001;45.952;12.676;2022-11-20T01:54:48;5.07;;;4.18;;
37085;SDS011;23001;45.952;12.676;2022-11-20T01:57:18;5.47;;;3.92;;
37085;SDS011;23001;45.952;12.676;2022-11-20T01:59:48;5.82;;;4.25;;
37085;SDS011;23001;45.952;12.676;2022-11-20T02:02:22;4.72;;;3.92;;
37085;SDS011;23001;45.952;12.676;2022-11-20T02:04:49;4.30;;;3.90;;
37085;SDS011;23001;45.952;12.676;2022-11-20T02:07:16;4.05;;;3.45;;
37085;SDS011;23001;45.952;12.676;2022-11-20T02:09:43;6.38;;;4.25;;
37085;SDS011;23001;45.952;12.676;2022-11-20T02:12:09;5.00;;;3.90;;
37085;SDS011;23001;45.952;12.676;2022-11-20T02:14:54;4.68;;;4.00;;
37085;SDS011;23001;45.952;12.676;2022-11-20T02:17:21;4.30;;;3.90;;
37085;SDS011;23001;45.952;12.676;2022-11-20T02:19:47;4.72;;;3.97;;
37085;SDS011;23001;45.952;12.676;2022-11-20T02:22:22;4.82;;;4.32;;
37085;SDS011;23001;45.952;12.676;2022-11-20T02:24:56;5.70;;;4.13;;
37085;SDS011;23001;45.952;12.676;2022-11-20T02:27:24;5.65;;;3.83;;
37085;SDS011;23001;45.952;12.676;2022-11-20T02:29:52;4.18;;;3.78;;
37085;SDS011;23001;45.952;12.676;2022-11-20T02:32:24;4.65;;;3.92;;
37085;SDS011;23001;45.952;12.676;2022-11-20T02:34:54;4.78;;;4.22;;
37085;SDS011;23001;45.952;12.676;2022-11-20T02:37:21;6.25;;;4.65;;
37085;SDS011;23001;45.952;12.676;2022-11-20T02:39:49;4.38;;;3.97;;
37085;SDS011;23001;45.952;12.676;2022-11-20T02:42:16;4.43;;;4.03;;
37085;SDS011;23001;45.952;12.676;2022-11-20T02:44:42;5.38;;;4.63;;
37085;SDS011;23001;45.952;12.676;2022-11-20T02:47:08;5.05;;;4.10;;
37085;SDS011;23001;45.952;12.676;2022-11-20T02:49:34;5.38;;;4.15;;
37085;SDS011;23001;45.952;12.676;2022-11-20T02:52:00;3.95;;;3.50;;
37085;SDS011;23001;45.952;12.676;2022-11-20T02:54:26;4.18;;;3.50;;
37085;SDS011;23001;45.952;12.676;2022-11-20T02:56:52;5.07;;;4.18;;
37085;SDS011;23001;45.952;12.676;2022-11-20T02:59:18;4.80;;;3.83;;
37085;SDS011;23001;45.952;12.676;2022-11-20T03:01:43;4.93;;;4.43;;
37085;SDS011;23001;45.952;12.676;2022-11-20T03:04:09;5.32;;;4.63;;
37085;SDS011;23001;45.952;12.676;2022-11-20T03:06:35;5.18;;;4.65;;
37085;SDS011;23001;45.952;12.676;2022-11-20T03:09:00;5.20;;;4.18;;
37085;SDS011;23001;45.952;12.676;2022-11-20T03:11:26;4.90;;;4.40;;
37085;SDS011;23001;45.952;12.676;2022-11-20T03:13:53;5.80;;;4.30;;
37085;SDS011;23001;45.952;12.676;2022-11-20T03:16:19;4.18;;;3.78;;
37085;SDS011;23001;45.952;12.676;2022-11-20T03:18:46;4.90;;;4.35;;
37085;SDS011;23001;45.952;12.676;2022-11-20T03:21:13;4.35;;;3.47;;
37085;SDS011;23001;45.952;12.676;2022-11-20T03:23:40;5.15;;;3.90;;
37085;SDS011;23001;45.952;12.676;2022-11-20T03:26:16;4.90;;;4.20;;
37085;SDS011;23001;45.952;12.676;2022-11-20T03:29:03;5.32;;;4.05;;
37085;SDS011;23001;45.952;12.676;2022-11-20T03:31:30;5.30;;;4.30;;
37085;SDS011;23001;45.952;12.676;2022-11-20T03:34:05;5.40;;;4.30;;
37085;SDS011;23001;45.952;12.676;2022-11-20T03:36:31;6.13;;;4.50;;
37085;SDS011;23001;45.952;12.676;2022-11-20T03:38:57;4.82;;;4.20;;
37085;SDS011;23001;45.952;12.676;2022-11-20T03:41:24;4.82;;;4.18;;
37085;SDS011;23001;45.952;12.676;2022-11-20T03:43:55;5.25;;;3.88;;
37085;SDS011;23001;45.952;12.676;2022-11-20T03:46:23;6.13;;;4.30;;
37085;SDS011;23001;45.952;12.676;2022-11-20T03:48:49;5.50;;;4.35;;
37085;SDS011;23001;45.952;12.676;2022-11-20T03:51:22;4.57;;;4.18;;
37085;SDS011;23001;45.952;12.676;2022-11-20T03:53:49;4.03;;;3.63;;
37085;SDS011;23001;45.952;12.676;2022-11-20T03:56:17;5.10;;;4.20;;
37085;SDS011;23001;45.952;12.676;2022-11-20T03:58:44;4.35;;;3.78;;
37085;SDS011;23001;45.952;12.676;2022-11-20T04:01:15;4.50;;;4.10;;
37085;SDS011;23001;45.952;12.676;2022-11-20T04:03:43;5.43;;;4.30;;
37085;SDS011;23001;45.952;12.676;2022-11-20T04:08:36;5.00;;;4.00;;
37085;SDS011;23001;45.952;12.676;2022-11-20T04:11:09;4.82;;;4.18;;
37085;SDS011;23001;45.952;12.676;2022-11-20T04:13:35;4.55;;;3.97;;
37085;SDS011;23001;45.952;12.676;2022-11-20T04:16:01;4.93;;;3.67;;
37085;SDS011;23001;45.952;12.676;2022-11-20T04:18:26;4.57;;;3.85;;
37085;SDS011;23001;45.952;12.676;2022-11-20T04:20:52;4.25;;;3.85;;
37085;SDS011;23001;45.952;12.676;2022-11-20T04:23:18;8.05;;;4.70;;
37085;SDS011;23001;45.952;12.676;2022-11-20T04:25:43;4.53;;;4.07;;
37085;SDS011;23001;45.952;12.676;2022-11-20T04:28:09;6.50;;;4.30;;
37085;SDS011;23001;45.952;12.676;2022-11-20T04:30:35;5.05;;;4.53;;
37085;SDS011;23001;45.952;12.676;2022-11-20T04:33:00;6.20;;;4.07;;
37085;SDS011;23001;45.952;12.676;2022-11-20T04:35:26;4.40;;;4.00;;
37085;SDS011;23001;45.952;12.676;2022-11-20T04:37:52;4.65;;;4.25;;
37085;SDS011;23001;45.952;12.676;2022-11-20T04:40:17;5.13;;;4.05;;
37085;SDS011;23001;45.952;12.676;2022-11-20T04:42:43;4.50;;;3.90;;
37085;SDS011;23001;45.952;12.676;2022-11-20T04:45:09;5.05;;;4.55;;
37085;SDS011;23001;45.952;12.676;2022-11-20T04:47:34;4.28;;;3.88;;
37085;SDS011;23001;45.952;12.676;2022-11-20T04:50:00;4.22;;;3.83;;
37085;SDS011;23001;45.952;12.676;2022-11-20T04:52:26;5.55;;;4.00;;
37085;SDS011;23001;45.952;12.676;2022-11-20T04:54:51;5.10;;;4.25;;
37085;SDS011;23001;45.952;12.676;2022-11-20T04:57:18;4.68;;;3.95;;
37085;SDS011;23001;45.952;12.676;2022-11-20T04:59:44;4.00;;;3.65;;
37085;SDS011;23001;45.952;12.676;2022-11-20T05:02:10;5.28;;;4.15;;
37085;SDS011;23001;45.952;12.676;2022-11-20T05:04:36;7.28;;;4.25;;
37085;SDS011;23001;45.952;12.676;2022-11-20T05:07:02;5.38;;;3.50;;
37085;SDS011;23001;45.952;12.676;2022-11-20T05:09:28;3.90;;;3.55;;
37085;SDS011;23001;45.952;12.676;2022-11-20T05:11:54;5.30;;;3.88;;
37085;SDS011;23001;45.952;12.676;2022-11-20T05:14:20;4.45;;;3.67;;
37085;SDS011;23001;45.952;12.676;2022-11-20T05:16:46;4.53;;;3.75;;
37085;SDS011;23001;45.952;12.676;2022-11-20T05:19:11;5.28;;;3.83;;
37085;SDS011;23001;45.952;12.676;2022-11-20T05:21:37;4.22;;;3.83;;
37085;SDS011;23001;45.952;12.676;2022-11-20T05:24:03;4.72;;;3.97;;
37085;SDS011;23001;45.952;12.676;2022-11-20T05:26:29;5.60;;;3.97;;
37085;SDS011;23001;45.952;12.676;2022-11-20T05:28:55;4.20;;;3.83;;
37085;SDS011;23001;45.952;12.676;2022-11-20T05:31:21;5.25;;;3.92;;
37085;SDS011;23001;45.952;12.676;2022-11-20T05:33:48;4.38;;;3.97;;
37085;SDS011;23001;45.952;12.676;2022-11-20T05:36:14;4.10;;;3.78;;
37085;SDS011;23001;45.952;12.676;2022-11-20T05:38:40;5.03;;;3.88;;
37085;SDS011;23001;45.952;12.676;2022-11-20T05:41:08;4.32;;;3.92;;
37085;SDS011;23001;45.952;12.676;2022-11-20T05:43:36;5.10;;;4.10;;
37085;SDS011;23001;45.952;12.676;2022-11-20T05:46:03;4.93;;;4.40;;
37085;SDS011;23001;45.952;12.676;2022-11-20T05:48:29;5.10;;;4.35;;
37085;SDS011;23001;45.952;12.676;2022-11-20T05:50:56;5.50;;;4.50;;
37085;SDS011;23001;45.952;12.676;2022-11-20T05:53:23;7.07;;;5.15;;
37085;SDS011;23001;45.952;12.676;2022-11-20T05:58:34;7.50;;;5.65;;
37085;SDS011;23001;45.952;12.676;2022-11-20T06:01:08;8.07;;;6.22;;
37085;SDS011;23001;45.952;12.676;2022-11-20T06:03:38;9.60;;;7.25;;
37085;SDS011;23001;45.952;12.676;2022-11-20T06:06:05;7.93;;;7.07;;
37085;SDS011;23001;45.952;12.676;2022-11-20T06:08:31;11.60;;;6.80;;
37085;SDS011;23001;45.952;12.676;2022-11-20T06:10:57;9.38;;;5.43;;
37085;SDS011;23001;45.952;12.676;2022-11-20T06:13:23;6.78;;;5.50;;
37085;SDS011;23001;45.952;12.676;2022-11-20T06:15:50;9.00;;;5.35;;
37085;SDS011;23001;45.952;12.676;2022-11-20T06:18:17;6.45;;;5.50;;
37085;SDS011;23001;45.952;12.676;2022-11-20T06:20:43;7.00;;;5.72;;
37085;SDS011;23001;45.952;12.676;2022-11-20T06:23:09;5.50;;;4.80;;
37085;SDS011;23001;45.952;12.676;2022-11-20T06:25:39;5.80;;;5.20;;
37085;SDS011;23001;45.952;12.676;2022-11-20T06:28:06;6.68;;;5.32;;
37085;SDS011;23001;45.952;12.676;2022-11-20T06:30:32;7.68;;;4.93;;
37085;SDS011;23001;45.952;12.676;2022-11-20T06:32:58;8.23;;;5.05;;
37085;SDS011;23001;45.952;12.676;2022-11-20T06:35:23;5.80;;;5.05;;
37085;SDS011;23001;45.952;12.676;2022-11-20T06:37:49;7.38;;;5.28;;
37085;SDS011;23001;45.952;12.676;2022-11-20T06:40:15;9.00;;;5.70;;
37085;SDS011;23001;45.952;12.676;2022-11-20T06:42:41;5.93;;;5.32;;
37085;SDS011;23001;45.952;12.676;2022-11-20T06:45:07;6.18;;;5.57;;
37085;SDS011;23001;45.952;12.676;2022-11-20T06:47:33;8.38;;;5.93;;
37085;SDS011;23001;45.952;12.676;2022-11-20T06:49:59;6.10;;;5.50;;
37085;SDS011;23001;45.952;12.676;2022-11-20T06:52:24;6.65;;;5.80;;
37085;SDS011;23001;45.952;12.676;2022-11-20T06:54:50;7.88;;;7.07;;
37085;SDS011;23001;45.952;12.676;2022-11-20T06:57:16;9.38;;;6.97;;
37085;SDS011;23001;45.952;12.676;2022-11-20T06:59:41;10.13;;;8.00;;
37085;SDS011;23001;45.952;12.676;2022-11-20T07:02:10;8.48;;;7.43;;
37085;SDS011;23001;45.952;12.676;2022-11-20T07:04:37;9.07;;;8.13;;
37085;SDS011;23001;45.952;12.676;2022-11-20T07:07:12;9.95;;;8.27;;
37085;SDS011;23001;45.952;12.676;2022-11-20T07:09:38;8.88;;;7.97;;
37085;SDS011;23001;45.952;12.676;2022-11-20T07:12:09;7.95;;;6.70;;
37085;SDS011;23001;45.952;12.676;2022-11-20T07:14:35;14.30;;;6.45;;
37085;SDS011;23001;45.952;12.676;2022-11-20T07:17:01;6.32;;;5.70;;
37085;SDS011;23001;45.952;12.676;2022-11-20T07:19:27;6.18;;;5.10;;
37085;SDS011;23001;45.952;12.676;2022-11-20T07:22:03;5.47;;;4.88;;
37085;SDS011;23001;45.952;12.676;2022-11-20T07:24:29;5.63;;;4.82;;
37085;SDS011;23001;45.952;12.676;2022-11-20T07:26:55;6.53;;;5.68;;
37085;SDS011;23001;45.952;12.676;2022-11-20T07:29:23;5.65;;;5.15;;
37085;SDS011;23001;45.952;12.676;2022-11-20T07:31:57;8.13;;;5.80;;
37085;SDS011;23001;45.952;12.676;2022-11-20T07:34:43;6.05;;;5.07;;
37085;SDS011;23001;45.952;12.676;2022-11-20T07:37:09;5.32;;;4.80;;
37085;SDS011;23001;45.952;12.676;2022-11-20T07:39:34;6.32;;;5.30;;
37085;SDS011;23001;45.952;12.676;2022-11-20T07:42:03;9.27;;;5.07;;
37085;SDS011;23001;45.952;12.676;2022-11-20T07:44:47;5.32;;;4.90;;
37085;SDS011;23001;45.952;12.676;2022-11-20T07:47:16;7.60;;;5.43;;
37085;SDS011;23001;45.952;12.676;2022-11-20T07:49:47;8.40;;;5.05;;
37085;SDS011;23001;45.952;12.676;2022-11-20T07:52:13;5.72;;;5.18;;
37085;SDS011;23001;45.952;12.676;2022-11-20T07:54:39;6.55;;;5.85;;
37085;SDS011;23001;45.952;12.676;2022-11-20T07:57:25;6.20;;;5.60;;
37085;SDS011;23001;45.952;12.676;2022-11-20T08:00:13;13.77;;;11.00;;
37085;SDS011;23001;45.952;12.676;2022-11-20T08:02:40;7.60;;;6.72;;
37085;SDS011;23001;45.952;12.676;2022-11-20T08:05:26;7.45;;;5.70;;
37085;SDS011;23001;45.952;12.676;2022-11-20T08:08:22;7.90;;;5.43;;
37085;SDS011;23001;45.952;12.676;2022-11-20T08:10:59;6.65;;;6.05;;
37085;SDS011;23001;45.952;12.676;2022-11-20T08:31:08;5.78;;;4.78;;
37085;SDS011;23001;45.952;12.676;2022-11-20T08:37:34;5.03;;;4.07;;
37085;SDS011;23001;45.952;12.676;2022-11-20T08:40:12;4.45;;;4.00;;
37085;SDS011;23001;45.952;12.676;2022-11-20T08:45:52;5.68;;;4.53;;
37085;SDS011;23001;45.952;12.676;2022-11-20T08:48:18;4.75;;;4.03;;
37085;SDS011;23001;45.952;12.676;2022-11-20T08:50:44;5.35;;;3.70;;
37085;SDS011;23001;45.952;12.676;2022-11-20T08:53:50;5.65;;;4.40;;
37085;SDS011;23001;45.952;12.676;2022-11-20T08:56:16;5.88;;;4.20;;
37085;SDS011;23001;45.952;12.676;2022-11-20T08:58:45;4.30;;;3.80;;
37085;SDS011;23001;45.952;12.676;2022-11-20T09:01:11;4.85;;;3.80;;
37085;SDS011;23001;45.952;12.676;2022-11-20T09:03:56;4.32;;;3.78;;
37085;SDS011;23001;45.952;12.676;2022-11-20T09:06:22;6.65;;;4.93;;
37085;SDS011;23001;45.952;12.676;2022-11-20T09:08:51;5.47;;;4.50;;
37085;SDS011;23001;45.952;12.676;2022-11-20T09:18:09;5.10;;;4.60;;
37085;SDS011;23001;45.952;12.676;2022-11-20T09:20:35;6.93;;;4.05;;
37085;SDS011;23001;45.952;12.676;2022-11-20T09:23:01;4.20;;;3.28;;
37085;SDS011;23001;45.952;12.676;2022-11-20T09:25:38;4.20;;;3.80;;
37085;SDS011;23001;45.952;12.676;2022-11-20T09:28:03;4.88;;;3.75;;
37085;SDS011;23001;45.952;12.676;2022-11-20T09:30:40;4.75;;;3.05;;
37085;SDS011;23001;45.952;12.676;2022-11-20T09:33:06;3.47;;;3.17;;
37085;SDS011;23001;45.952;12.676;2022-11-20T09:35:32;3.78;;;3.38;;
37085;SDS011;23001;45.952;12.676;2022-11-20T09:50:32;4.35;;;3.80;;
37085;SDS011;23001;45.952;12.676;2022-11-20T09:56:04;4.70;;;3.80;;
37085;SDS011;23001;45.952;12.676;2022-11-20T10:14:57;4.97;;;3.88;;
37085;SDS011;23001;45.952;12.676;2022-11-20T10:20:23;4.38;;;3.88;;
37085;SDS011;23001;45.952;12.676;2022-11-20T10:30:15;10.60;;;6.65;;
37085;SDS011;23001;45.952;12.676;2022-11-20T10:33:06;8.80;;;6.20;;
37085;SDS011;23001;45.952;12.676;2022-11-20T10:41:51;2.80;;;2.50;;
37085;SDS011;23001;45.952;12.676;2022-11-20T10:44:22;6.82;;;3.35;;
37085;SDS011;23001;45.952;12.676;2022-11-20T10:47:12;4.10;;;3.30;;
37085;SDS011;23001;45.952;12.676;2022-11-20T10:49:43;4.35;;;3.10;;
37085;SDS011;23001;45.952;12.676;2022-11-20T10:55:23;5.78;;;3.38;;
37085;SDS011;23001;45.952;12.676;2022-11-20T10:58:04;3.58;;;3.28;;
37085;SDS011;23001;45.952;12.676;2022-11-20T11:00:51;3.67;;;3.05;;
37085;SDS011;23001;45.952;12.676;2022-11-20T11:06:54;3.92;;;3.35;;
37085;SDS011;23001;45.952;12.676;2022-11-20T11:12:25;4.10;;;3.40;;
37085;SDS011;23001;45.952;12.676;2022-11-20T11:14:54;4.18;;;3.25;;
37085;SDS011;23001;45.952;12.676;2022-11-20T11:20:19;4.20;;;3.60;;
37085;SDS011;23001;45.952;12.676;2022-11-20T11:22:56;4.35;;;3.95;;
37085;SDS011;23001;45.952;12.676;2022-11-20T11:25:27;4.63;;;3.72;;
37085;SDS011;23001;45.952;12.676;2022-11-20T11:33:36;3.92;;;2.67;;
37085;SDS011;23001;45.952;12.676;2022-11-20T11:39:11;4.97;;;2.38;;
37085;SDS011;23001;45.952;12.676;2022-11-20T11:41:52;2.47;;;2.15;;
37085;SDS011;23001;45.952;12.676;2022-11-20T11:44:19;4.93;;;3.05;;
37085;SDS011;23001;45.952;12.676;2022-11-20T11:53:36;2.80;;;2.50;;
37085;SDS011;23001;45.952;12.676;2022-11-20T11:56:09;2.88;;;2.10;;
37085;SDS011;23001;45.952;12.676;2022-11-20T12:07:47;3.08;;;2.75;;
37085;SDS011;23001;45.952;12.676;2022-11-20T12:16:51;3.53;;;3.22;;
37085;SDS011;23001;45.952;12.676;2022-11-20T12:19:22;4.00;;;3.40;;
37085;SDS011;23001;45.952;12.676;2022-11-20T12:22:28;3.88;;;3.00;;
37085;SDS011;23001;45.952;12.676;2022-11-20T12:30:23;4.55;;;3.70;;
37085;SDS011;23001;45.952;12.676;2022-11-20T12:33:20;3.17;;;2.88;;
37085;SDS011;23001;45.952;12.676;2022-11-20T12:36:22;3.67;;;2.90;;
37085;SDS011;23001;45.952;12.676;2022-11-20T12:39:03;6.93;;;3.13;;
37085;SDS011;23001;45.952;12.676;2022-11-20T12:41:55;3.35;;;3.00;;
37085;SDS011;23001;45.952;12.676;2022-11-20T13:02:23;4.25;;;3.33;;
37085;SDS011;23001;45.952;12.676;2022-11-20T13:08:32;2.45;;;2.20;;
37085;SDS011;23001;45.952;12.676;2022-11-20T13:16:37;4.20;;;2.60;;
37085;SDS011;23001;45.952;12.676;2022-11-20T13:19:04;3.42;;;2.70;;
37085;SDS011;23001;45.952;12.676;2022-11-20T13:21:37;3.00;;;2.60;;
37085;SDS011;23001;45.952;12.676;2022-11-20T13:29:44;3.08;;;2.63;;
37085;SDS011;23001;45.952;12.676;2022-11-20T13:32:16;2.83;;;2.40;;
37085;SDS011;23001;45.952;12.676;2022-11-20T13:41:37;3.40;;;2.80;;
37085;SDS011;23001;45.952;12.676;2022-11-20T13:46:41;3.53;;;2.53;;
37085;SDS011;23001;45.952;12.676;2022-11-20T13:57:44;4.75;;;2.72;;
37085;SDS011;23001;45.952;12.676;2022-11-20T14:02:43;3.58;;;2.72;;
37085;SDS011;23001;45.952;12.676;2022-11-20T14:05:22;3.08;;;2.53;;
37085;SDS011;23001;45.952;12.676;2022-11-20T14:07:49;3.15;;;2.53;;
37085;SDS011;23001;45.952;12.676;2022-11-20T14:13:10;5.15;;;2.88;;
37085;SDS011;23001;45.952;12.676;2022-11-20T14:15:40;3.88;;;3.10;;
37085;SDS011;23001;45.952;12.676;2022-11-20T14:18:13;3.22;;;2.92;;
37085;SDS011;23001;45.952;12.676;2022-11-20T14:20:49;4.32;;;3.10;;
37085;SDS011;23001;45.952;12.676;2022-11-20T14:23:23;4.35;;;2.90;;
37085;SDS011;23001;45.952;12.676;2022-11-20T14:25:55;3.70;;;3.00;;
37085;SDS011;23001;45.952;12.676;2022-11-20T14:28:25;3.03;;;2.70;;
37085;SDS011;23001;45.952;12.676;2022-11-20T14:30:53;3.42;;;3.10;;
37085;SDS011;23001;45.952;12.676;2022-11-20T14:33:20;4.00;;;2.80;;
37085;SDS011;23001;45.952;12.676;2022-11-20T14:35:52;6.70;;;3.35;;
37085;SDS011;23001;45.952;12.676;2022-11-20T14:38:29;3.67;;;2.63;;
37085;SDS011;23001;45.952;12.676;2022-11-20T14:41:22;3.72;;;2.72;;
37085;SDS011;23001;45.952;12.676;2022-11-20T14:43:58;6.10;;;4.68;;
37085;SDS011;23001;45.952;12.676;2022-11-20T14:46:25;18.60;;;15.93;;
37085;SDS011;23001;45.952;12.676;2022-11-20T14:49:00;13.07;;;9.07;;
37085;SDS011;23001;45.952;12.676;2022-11-20T14:51:35;4.47;;;4.07;;
37085;SDS011;23001;45.952;12.676;2022-11-20T14:54:24;3.80;;;3.42;;
37085;SDS011;23001;45.952;12.676;2022-11-20T14:56:58;4.50;;;3.23;;
37085;SDS011;23001;45.952;12.676;2022-11-20T14:59:43;4.50;;;3.25;;
37085;SDS011;23001;45.952;12.676;2022-11-20T15:02:10;4.57;;;3.58;;
37085;SDS011;23001;45.952;12.676;2022-11-20T15:07:25;9.75;;;8.93;;
37085;SDS011;23001;45.952;12.676;2022-11-20T15:13:24;7.45;;;6.60;;
37085;SDS011;23001;45.952;12.676;2022-11-20T15:15:55;6.40;;;5.78;;
37085;SDS011;23001;45.952;12.676;2022-11-20T15:18:40;5.80;;;5.10;;
37085;SDS011;23001;45.952;12.676;2022-11-20T15:21:13;5.90;;;4.75;;
37085;SDS011;23001;45.952;12.676;2022-11-20T15:23:48;7.32;;;5.82;;
37085;SDS011;23001;45.952;12.676;2022-11-20T15:26:22;51.40;;;10.18;;
37085;SDS011;23001;45.952;12.676;2022-11-20T15:28:51;12.25;;;5.13;;
37085;SDS011;23001;45.952;12.676;2022-11-20T15:31:18;7.47;;;3.90;;
37085;SDS011;23001;45.952;12.676;2022-11-20T15:34:10;4.63;;;3.50;;
37085;SDS011;23001;45.952;12.676;2022-11-20T15:36:57;9.50;;;8.50;;
37085;SDS011;23001;45.952;12.676;2022-11-20T15:40:00;9.45;;;8.55;;
37085;SDS011;23001;45.952;12.676;2022-11-20T15:42:29;21.48;;;17.42;;
37085;SDS011;23001;45.952;12.676;2022-11-20T15:44:55;31.63;;;25.75;;
37085;SDS011;23001;45.952;12.676;2022-11-20T15:48:07;40.22;;;33.17;;
37085;SDS011;23001;45.952;12.676;2022-11-20T15:50:19;30.23;;;24.60;;
37085;SDS011;23001;45.952;12.676;2022-11-20T15:52:49;30.77;;;24.92;;
37085;SDS011;23001;45.952;12.676;2022-11-20T15:55:15;13.63;;;10.75;;
37085;SDS011;23001;45.952;12.676;2022-11-20T15:57:41;12.15;;;10.85;;
37085;SDS011;23001;45.952;12.676;2022-11-20T16:00:07;6.78;;;6.07;;
37085;SDS011;23001;45.952;12.676;2022-11-20T16:02:33;5.60;;;5.05;;
37085;SDS011;23001;45.952;12.676;2022-11-20T16:05:00;5.65;;;4.88;;
37085;SDS011;23001;45.952;12.676;2022-11-20T16:07:25;5.93;;;5.32;;
37085;SDS011;23001;45.952;12.676;2022-11-20T16:09:51;5.85;;;4.60;;
37085;SDS011;23001;45.952;12.676;2022-11-20T16:12:46;6.40;;;4.82;;
37085;SDS011;23001;45.952;12.676;2022-11-20T16:15:31;5.95;;;4.88;;
37085;SDS011;23001;45.952;12.676;2022-11-20T16:25:02;9.13;;;6.22;;
37085;SDS011;23001;45.952;12.676;2022-11-20T16:30:48;7.63;;;6.47;;
37085;SDS011;23001;45.952;12.676;2022-11-20T16:36:56;9.63;;;6.97;;
37085;SDS011;23001;45.952;12.676;2022-11-20T16:39:27;7.88;;;7.07;;
37085;SDS011;23001;45.952;12.676;2022-11-20T16:41:53;13.07;;;8.23;;
37085;SDS011;23001;45.952;12.676;2022-11-20T16:44:39;8.88;;;7.75;;
37085;SDS011;23001;45.952;12.676;2022-11-20T16:47:07;16.92;;;11.15;;
37085;SDS011;23001;45.952;12.676;2022-11-20T16:49:47;15.57;;;13.13;;
37085;SDS011;23001;45.952;12.676;2022-11-20T16:52:17;13.90;;;11.02;;
37085;SDS011;23001;45.952;12.676;2022-11-20T16:54:43;13.45;;;10.18;;
37085;SDS011;23001;45.952;12.676;2022-11-20T17:00:15;15.43;;;10.88;;
37085;SDS011;23001;45.952;12.676;2022-11-20T17:02:41;13.70;;;10.77;;
37085;SDS011;23001;45.952;12.676;2022-11-20T17:05:09;10.65;;;9.23;;
37085;SDS011;23001;45.952;12.676;2022-11-20T17:07:38;13.32;;;10.25;;
37085;SDS011;23001;45.952;12.676;2022-11-20T17:10:04;10.40;;;9.23;;
37085;SDS011;23001;45.952;12.676;2022-11-20T17:12:29;13.35;;;11.95;;
37085;SDS011;23001;45.952;12.676;2022-11-20T17:14:55;12.32;;;10.57;;
37085;SDS011;23001;45.952;12.676;2022-11-20T17:17:21;12.35;;;9.52;;
37085;SDS011;23001;45.952;12.676;2022-11-20T17:19:47;9.93;;;8.35;;
37085;SDS011;23001;45.952;12.676;2022-11-20T17:25:14;15.38;;;11.00;;
37085;SDS011;23001;45.952;12.676;2022-11-20T17:27:45;14.02;;;10.68;;
37085;SDS011;23001;45.952;12.676;2022-11-20T17:30:23;14.10;;;10.10;;
37085;SDS011;23001;45.952;12.676;2022-11-20T17:32:52;10.43;;;9.32;;
37085;SDS011;23001;45.952;12.676;2022-11-20T17:35:28;10.95;;;9.38;;
37085;SDS011;23001;45.952;12.676;2022-11-20T17:37:59;10.82;;;9.35;;
37085;SDS011;23001;45.952;12.676;2022-11-20T17:40:26;11.20;;;9.45;;
37085;SDS011;23001;45.952;12.676;2022-11-20T17:45:35;11.85;;;9.93;;
37085;SDS011;23001;45.952;12.676;2022-11-20T17:48:01;13.40;;;10.60;;
37085;SDS011;23001;45.952;12.676;2022-11-20T17:50:30;14.38;;;12.10;;
37085;SDS011;23001;45.952;12.676;2022-11-20T17:52:56;13.82;;;11.43;;
37085;SDS011;23001;45.952;12.676;2022-11-20T17:55:22;14.70;;;11.88;;
37085;SDS011;23001;45.952;12.676;2022-11-20T17:58:36;15.02;;;12.07;;
37085;SDS011;23001;45.952;12.676;2022-11-20T18:01:04;14.65;;;12.20;;
37085;SDS011;23001;45.952;12.676;2022-11-20T18:03:31;13.98;;;12.10;;
37085;SDS011;23001;45.952;12.676;2022-11-20T18:05:57;20.10;;;12.90;;
37085;SDS011;23001;45.952;12.676;2022-11-20T18:08:28;14.30;;;10.93;;
37085;SDS011;23001;45.952;12.676;2022-11-20T18:10:54;11.98;;;10.57;;
37085;SDS011;23001;45.952;12.676;2022-11-20T18:13:19;17.13;;;13.65;;
37085;SDS011;23001;45.952;12.676;2022-11-20T18:16:14;11.02;;;9.10;;
37085;SDS011;23001;45.952;12.676;2022-11-20T18:18:56;9.90;;;8.73;;
37085;SDS011;23001;45.952;12.676;2022-11-20T18:21:26;9.25;;;7.32;;
37085;SDS011;23001;45.952;12.676;2022-11-20T18:24:01;8.38;;;6.28;;
37085;SDS011;23001;45.952;12.676;2022-11-20T18:26:31;7.03;;;6.18;;
37085;SDS011;23001;45.952;12.676;2022-11-20T18:28:59;7.03;;;5.47;;
37085;SDS011;23001;45.952;12.676;2022-11-20T18:31:31;6.80;;;5.60;;